sensor_id;sensor_type;location;lat;lon;timestamp;P1;P2;P0
44933;PMS3003;30667;43.614;1.442;2023-03-01T00:00:52;28.80;27.00;16.80
44933;PMS3003;30667;43.614;1.442;2023-03-01T00:03:17;29.00;26.75;17.25
44933;PMS3003;30667;43.614;1.442;2023-03-01T00:05:46;30.25;28.75;17.75
44933;PMS3003;30667;43.614;1.442;2023-03-01T00:08:12;28.40;27.80;18.00
44933;PMS3003;30667;43.614;1.442;2023-03-01T00:10:37;33.75;28.25;17.75
44933;PMS3003;30667;43.614;1.442;2023-03-01T00:13:03;30.50;28.50;17.50
44933;PMS3003;30667;43.614;1.442;2023-03-01T00:15:30;28.80;26.00;17.80
44933;PMS3003;30667;43.614;1.442;2023-03-01T00:17:56;31.60;29.60;20.60
44933;PMS3003;30667;43.614;1.442;2023-03-01T00:20:22;31.75;30.25;20.00
44933;PMS3003;30667;43.614;1.442;2023-03-01T00:22:47;34.75;30.50;20.50
44933;PMS3003;30667;43.614;1.442;2023-03-01T00:25:12;32.25;30.75;18.00
44933;PMS3003;30667;43.614;1.442;2023-03-01T00:27:38;33.50;31.25;20.00
44933;PMS3003;30667;43.614;1.442;2023-03-01T00:30:03;34.50;30.25;18.00
44933;PMS3003;30667;43.614;1.442;2023-03-01T00:32:30;36.40;31.00;19.40
44933;PMS3003;30667;43.614;1.442;2023-03-01T00:34:55;31.75;28.00;17.75
44933;PMS3003;30667;43.614;1.442;2023-03-01T00:37:21;33.75;29.00;17.00
44933;PMS3003;30667;43.614;1.442;2023-03-01T00:39:47;33.40;31.20;20.40
44933;PMS3003;30667;43.614;1.442;2023-03-01T00:42:13;36.00;32.75;20.00
44933;PMS3003;30667;43.614;1.442;2023-03-01T00:44:38;31.25;29.00;20.50
44933;PMS3003;30667;43.614;1.442;2023-03-01T00:47:04;35.00;30.50;19.50
44933;PMS3003;30667;43.614;1.442;2023-03-01T00:49:29;35.75;32.00;20.00
44933;PMS3003;30667;43.614;1.442;2023-03-01T00:51:55;31.50;30.00;19.25
44933;PMS3003;30667;43.614;1.442;2023-03-01T00:54:20;40.00;33.25;20.25
44933;PMS3003;30667;43.614;1.442;2023-03-01T00:56:45;44.50;32.25;20.25
44933;PMS3003;30667;43.614;1.442;2023-03-01T00:59:11;36.75;26.50;18.75
44933;PMS3003;30667;43.614;1.442;2023-03-01T01:01:36;33.00;30.75;22.25
44933;PMS3003;30667;43.614;1.442;2023-03-01T01:04:04;34.00;32.25;20.00
44933;PMS3003;30667;43.614;1.442;2023-03-01T01:06:35;32.20;30.20;19.20
44933;PMS3003;30667;43.614;1.442;2023-03-01T01:09:03;35.60;30.40;20.00
44933;PMS3003;30667;43.614;1.442;2023-03-01T01:11:31;35.00;32.20;21.60
44933;PMS3003;30667;43.614;1.442;2023-03-01T01:13:58;37.20;30.60;19.80
44933;PMS3003;30667;43.614;1.442;2023-03-01T01:16:24;38.40;30.60;17.60
44933;PMS3003;30667;43.614;1.442;2023-03-01T01:18:52;33.40;28.40;17.80
44933;PMS3003;30667;43.614;1.442;2023-03-01T01:21:18;33.00;28.50;20.00
44933;PMS3003;30667;43.614;1.442;2023-03-01T01:23:45;31.00;28.00;19.40
44933;PMS3003;30667;43.614;1.442;2023-03-01T01:26:18;32.40;27.80;16.20
44933;PMS3003;30667;43.614;1.442;2023-03-01T01:28:48;30.80;28.80;17.40
44933;PMS3003;30667;43.614;1.442;2023-03-01T01:31:14;32.00;29.40;19.80
44933;PMS3003;30667;43.614;1.442;2023-03-01T01:33:40;33.00;30.00;17.60
44933;PMS3003;30667;43.614;1.442;2023-03-01T01:36:06;32.75;26.25;18.00
44933;PMS3003;30667;43.614;1.442;2023-03-01T01:38:32;32.40;29.20;20.00
44933;PMS3003;30667;43.614;1.442;2023-03-01T01:40:58;32.80;29.80;18.80
44933;PMS3003;30667;43.614;1.442;2023-03-01T01:43:25;33.50;29.50;19.00
44933;PMS3003;30667;43.614;1.442;2023-03-01T01:45:56;32.00;29.80;18.00
44933;PMS3003;30667;43.614;1.442;2023-03-01T01:48:28;30.20;28.80;17.20
44933;PMS3003;30667;43.614;1.442;2023-03-01T01:51:05;32.40;28.20;18.60
44933;PMS3003;30667;43.614;1.442;2023-03-01T01:53:35;31.20;27.40;16.60
44933;PMS3003;30667;43.614;1.442;2023-03-01T01:56:03;31.40;29.40;19.00
44933;PMS3003;30667;43.614;1.442;2023-03-01T01:58:31;37.40;31.80;19.20
44933;PMS3003;30667;43.614;1.442;2023-03-01T02:00:57;30.50;29.75;18.75
44933;PMS3003;30667;43.614;1.442;2023-03-01T02:03:24;28.00;26.25;18.75
44933;PMS3003;30667;43.614;1.442;2023-03-01T02:05:58;33.80;29.40;15.80
44933;PMS3003;30667;43.614;1.442;2023-03-01T02:08:27;30.00;25.60;15.80
44933;PMS3003;30667;43.614;1.442;2023-03-01T02:10:55;31.00;24.80;15.20
44933;PMS3003;30667;43.614;1.442;2023-03-01T02:13:22;30.60;26.80;16.20
44933;PMS3003;30667;43.614;1.442;2023-03-01T02:15:48;30.80;27.80;17.40
44933;PMS3003;30667;43.614;1.442;2023-03-01T02:18:14;32.50;28.50;16.50
44933;PMS3003;30667;43.614;1.442;2023-03-01T02:23:28;29.00;28.60;19.40
44933;PMS3003;30667;43.614;1.442;2023-03-01T02:28:42;30.20;28.20;17.00
44933;PMS3003;30667;43.614;1.442;2023-03-01T02:31:09;31.00;28.00;18.60
44933;PMS3003;30667;43.614;1.442;2023-03-01T02:33:58;29.80;27.20;16.60
44933;PMS3003;30667;43.614;1.442;2023-03-01T02:36:24;30.25;25.75;17.50
44933;PMS3003;30667;43.614;1.442;2023-03-01T02:38:55;34.80;31.60;20.00
44933;PMS3003;30667;43.614;1.442;2023-03-01T02:41:23;33.40;28.80;18.40
44933;PMS3003;30667;43.614;1.442;2023-03-01T02:43:51;32.80;30.40;20.60
44933;PMS3003;30667;43.614;1.442;2023-03-01T02:46:18;39.80;31.20;20.80
44933;PMS3003;30667;43.614;1.442;2023-03-01T02:48:48;29.20;24.80;16.80
44933;PMS3003;30667;43.614;1.442;2023-03-01T02:56:41;29.00;25.60;16.00
44933;PMS3003;30667;43.614;1.442;2023-03-01T02:59:09;33.20;26.80;17.60
44933;PMS3003;30667;43.614;1.442;2023-03-01T03:01:36;34.80;27.00;16.80
44933;PMS3003;30667;43.614;1.442;2023-03-01T03:04:05;27.75;25.50;16.75
44933;PMS3003;30667;43.614;1.442;2023-03-01T03:06:32;32.20;30.00;17.60
44933;PMS3003;30667;43.614;1.442;2023-03-01T03:08:58;28.80;26.80;16.40
44933;PMS3003;30667;43.614;1.442;2023-03-01T03:11:25;27.40;25.20;16.00
44933;PMS3003;30667;43.614;1.442;2023-03-01T03:13:51;28.60;26.60;17.00
44933;PMS3003;30667;43.614;1.442;2023-03-01T03:16:17;29.60;26.40;17.40
44933;PMS3003;30667;43.614;1.442;2023-03-01T03:18:43;26.20;23.20;14.40
44933;PMS3003;30667;43.614;1.442;2023-03-01T03:21:08;34.75;30.75;20.75
44933;PMS3003;30667;43.614;1.442;2023-03-01T03:23:35;26.20;25.40;17.20
44933;PMS3003;30667;43.614;1.442;2023-03-01T03:26:02;27.40;27.40;19.00
44933;PMS3003;30667;43.614;1.442;2023-03-01T03:28:29;27.00;24.00;17.20
44933;PMS3003;30667;43.614;1.442;2023-03-01T03:30:55;30.00;28.20;18.40
44933;PMS3003;30667;43.614;1.442;2023-03-01T03:33:21;31.60;30.80;18.60
44933;PMS3003;30667;43.614;1.442;2023-03-01T03:35:48;33.50;29.25;18.75
44933;PMS3003;30667;43.614;1.442;2023-03-01T03:38:15;36.00;28.60;19.80
44933;PMS3003;30667;43.614;1.442;2023-03-01T03:40:52;30.40;27.00;17.80
44933;PMS3003;30667;43.614;1.442;2023-03-01T03:43:30;34.80;29.00;19.20
44933;PMS3003;30667;43.614;1.442;2023-03-01T03:45:57;32.40;30.40;17.80
44933;PMS3003;30667;43.614;1.442;2023-03-01T03:48:23;35.00;34.75;23.50
44933;PMS3003;30667;43.614;1.442;2023-03-01T03:50:52;36.40;35.80;24.00
44933;PMS3003;30667;43.614;1.442;2023-03-01T03:53:19;45.40;36.20;23.20
44933;PMS3003;30667;43.614;1.442;2023-03-01T03:55:46;40.60;35.60;23.60
44933;PMS3003;30667;43.614;1.442;2023-03-01T03:58:14;42.20;37.60;23.60
44933;PMS3003;30667;43.614;1.442;2023-03-01T04:00:42;42.60;39.20;24.40
44933;PMS3003;30667;43.614;1.442;2023-03-01T04:03:10;42.40;34.60;24.40
44933;PMS3003;30667;43.614;1.442;2023-03-01T04:05:37;37.60;35.00;25.00
44933;PMS3003;30667;43.614;1.442;2023-03-01T04:08:03;43.00;37.20;24.80
44933;PMS3003;30667;43.614;1.442;2023-03-01T04:10:34;41.20;37.40;24.00
44933;PMS3003;30667;43.614;1.442;2023-03-01T04:13:04;44.00;39.80;26.60
44933;PMS3003;30667;43.614;1.442;2023-03-01T04:15:32;44.00;39.80;27.60
44933;PMS3003;30667;43.614;1.442;2023-03-01T04:17:58;40.60;37.00;24.00
44933;PMS3003;30667;43.614;1.442;2023-03-01T04:20:25;43.80;37.60;22.80
44933;PMS3003;30667;43.614;1.442;2023-03-01T04:22:59;43.00;39.00;26.20
44933;PMS3003;30667;43.614;1.442;2023-03-01T04:25:53;38.80;35.00;22.80
44933;PMS3003;30667;43.614;1.442;2023-03-01T04:28:24;39.80;35.60;21.00
44933;PMS3003;30667;43.614;1.442;2023-03-01T04:30:55;41.20;37.00;24.00
44933;PMS3003;30667;43.614;1.442;2023-03-01T04:33:22;48.40;40.00;25.20
44933;PMS3003;30667;43.614;1.442;2023-03-01T04:35:49;41.40;39.60;23.40
44933;PMS3003;30667;43.614;1.442;2023-03-01T04:38:14;46.00;38.75;23.50
44933;PMS3003;30667;43.614;1.442;2023-03-01T04:40:44;44.60;36.40;23.00
44933;PMS3003;30667;43.614;1.442;2023-03-01T04:43:10;44.25;38.50;23.25
44933;PMS3003;30667;43.614;1.442;2023-03-01T04:45:36;51.40;38.80;23.40
44933;PMS3003;30667;43.614;1.442;2023-03-01T04:48:02;41.00;37.25;22.50
44933;PMS3003;30667;43.614;1.442;2023-03-01T04:50:29;39.40;37.60;24.60
44933;PMS3003;30667;43.614;1.442;2023-03-01T04:52:55;38.60;37.00;23.80
44933;PMS3003;30667;43.614;1.442;2023-03-01T04:55:23;41.60;36.00;23.60
44933;PMS3003;30667;43.614;1.442;2023-03-01T04:57:53;50.20;38.40;22.80
44933;PMS3003;30667;43.614;1.442;2023-03-01T05:00:19;44.40;36.20;22.80
44933;PMS3003;30667;43.614;1.442;2023-03-01T05:02:52;42.60;39.00;23.00
44933;PMS3003;30667;43.614;1.442;2023-03-01T05:05:22;39.80;35.40;23.40
44933;PMS3003;30667;43.614;1.442;2023-03-01T05:07:54;39.00;34.00;23.00
44933;PMS3003;30667;43.614;1.442;2023-03-01T05:10:21;41.60;33.60;21.40
44933;PMS3003;30667;43.614;1.442;2023-03-01T05:12:47;40.40;35.80;23.80
44933;PMS3003;30667;43.614;1.442;2023-03-01T05:15:13;45.25;36.75;25.25
44933;PMS3003;30667;43.614;1.442;2023-03-01T05:17:39;48.40;40.00;25.80
44933;PMS3003;30667;43.614;1.442;2023-03-01T05:20:04;45.75;35.50;24.25
44933;PMS3003;30667;43.614;1.442;2023-03-01T05:22:34;42.40;36.00;23.00
44933;PMS3003;30667;43.614;1.442;2023-03-01T05:24:59;41.20;36.00;22.60
44933;PMS3003;30667;43.614;1.442;2023-03-01T05:27:25;40.50;36.00;23.25
44933;PMS3003;30667;43.614;1.442;2023-03-01T05:29:50;45.50;34.75;23.25
44933;PMS3003;30667;43.614;1.442;2023-03-01T05:32:15;38.25;37.00;22.50
44933;PMS3003;30667;43.614;1.442;2023-03-01T05:34:41;41.75;38.50;24.50
44933;PMS3003;30667;43.614;1.442;2023-03-01T05:37:07;42.60;37.60;23.80
44933;PMS3003;30667;43.614;1.442;2023-03-01T05:39:33;40.00;36.60;25.20
44933;PMS3003;30667;43.614;1.442;2023-03-01T05:41:59;41.50;38.50;23.50
44933;PMS3003;30667;43.614;1.442;2023-03-01T05:44:26;43.00;37.00;23.00
44933;PMS3003;30667;43.614;1.442;2023-03-01T05:46:53;41.00;38.60;24.00
44933;PMS3003;30667;43.614;1.442;2023-03-01T05:49:19;45.40;39.80;24.80
44933;PMS3003;30667;43.614;1.442;2023-03-01T05:51:48;43.20;38.40;24.80
44933;PMS3003;30667;43.614;1.442;2023-03-01T05:54:15;46.60;38.20;25.00
44933;PMS3003;30667;43.614;1.442;2023-03-01T05:56:41;44.00;39.80;26.20
44933;PMS3003;30667;43.614;1.442;2023-03-01T05:59:08;43.60;39.00;24.60
44933;PMS3003;30667;43.614;1.442;2023-03-01T06:01:33;41.75;37.00;22.25
44933;PMS3003;30667;43.614;1.442;2023-03-01T06:04:00;42.60;36.60;25.20
44933;PMS3003;30667;43.614;1.442;2023-03-01T06:06:25;39.75;35.50;23.75
44933;PMS3003;30667;43.614;1.442;2023-03-01T06:08:51;49.25;38.25;24.50
44933;PMS3003;30667;43.614;1.442;2023-03-01T06:11:18;38.40;35.20;23.00
44933;PMS3003;30667;43.614;1.442;2023-03-01T06:13:44;43.80;38.40;23.80
44933;PMS3003;30667;43.614;1.442;2023-03-01T06:16:10;46.75;40.50;25.75
44933;PMS3003;30667;43.614;1.442;2023-03-01T06:18:36;40.75;38.00;23.00
44933;PMS3003;30667;43.614;1.442;2023-03-01T06:21:02;39.40;38.00;23.80
44933;PMS3003;30667;43.614;1.442;2023-03-01T06:23:29;41.80;35.60;21.40
44933;PMS3003;30667;43.614;1.442;2023-03-01T06:25:54;42.75;36.00;25.25
44933;PMS3003;30667;43.614;1.442;2023-03-01T06:28:20;43.75;39.25;24.75
44933;PMS3003;30667;43.614;1.442;2023-03-01T06:30:45;38.20;35.60;24.60
44933;PMS3003;30667;43.614;1.442;2023-03-01T06:33:11;44.50;39.00;23.25
44933;PMS3003;30667;43.614;1.442;2023-03-01T06:35:37;42.25;37.00;24.75
44933;PMS3003;30667;43.614;1.442;2023-03-01T06:38:03;43.75;39.75;23.00
44933;PMS3003;30667;43.614;1.442;2023-03-01T06:40:29;40.60;35.80;25.60
44933;PMS3003;30667;43.614;1.442;2023-03-01T06:43:00;45.40;37.40;24.00
44933;PMS3003;30667;43.614;1.442;2023-03-01T06:45:26;39.20;33.20;20.80
44933;PMS3003;30667;43.614;1.442;2023-03-01T06:47:51;42.00;36.50;24.25
44933;PMS3003;30667;43.614;1.442;2023-03-01T06:50:17;39.00;36.25;23.00
44933;PMS3003;30667;43.614;1.442;2023-03-01T06:52:43;43.40;38.60;24.20
44933;PMS3003;30667;43.614;1.442;2023-03-01T06:55:10;48.00;41.80;24.20
44933;PMS3003;30667;43.614;1.442;2023-03-01T06:57:36;39.60;38.40;25.20
44933;PMS3003;30667;43.614;1.442;2023-03-01T07:00:05;41.75;38.75;23.75
44933;PMS3003;30667;43.614;1.442;2023-03-01T07:02:32;40.00;36.20;23.40
44933;PMS3003;30667;43.614;1.442;2023-03-01T07:04:57;40.25;37.75;23.00
44933;PMS3003;30667;43.614;1.442;2023-03-01T07:07:22;48.75;37.00;23.25
44933;PMS3003;30667;43.614;1.442;2023-03-01T07:09:48;39.75;35.50;24.75
44933;PMS3003;30667;43.614;1.442;2023-03-01T07:12:14;41.20;39.00;24.40
44933;PMS3003;30667;43.614;1.442;2023-03-01T07:14:40;51.25;43.50;28.00
44933;PMS3003;30667;43.614;1.442;2023-03-01T07:17:05;38.50;34.25;23.00
44933;PMS3003;30667;43.614;1.442;2023-03-01T07:19:31;51.25;35.75;23.00
44933;PMS3003;30667;43.614;1.442;2023-03-01T07:21:57;39.75;34.25;23.25
44933;PMS3003;30667;43.614;1.442;2023-03-01T07:24:22;40.50;38.50;24.00
44933;PMS3003;30667;43.614;1.442;2023-03-01T07:26:51;41.00;35.50;23.75
44933;PMS3003;30667;43.614;1.442;2023-03-01T07:29:18;40.80;35.40;22.80
44933;PMS3003;30667;43.614;1.442;2023-03-01T07:31:44;39.75;35.50;24.75
44933;PMS3003;30667;43.614;1.442;2023-03-01T07:34:09;41.00;37.00;26.50
44933;PMS3003;30667;43.614;1.442;2023-03-01T07:36:35;43.60;39.00;22.40
44933;PMS3003;30667;43.614;1.442;2023-03-01T07:39:01;44.75;36.75;24.25
44933;PMS3003;30667;43.614;1.442;2023-03-01T07:41:28;40.60;34.00;22.40
44933;PMS3003;30667;43.614;1.442;2023-03-01T07:43:53;40.00;35.25;22.75
44933;PMS3003;30667;43.614;1.442;2023-03-01T07:46:19;37.25;34.75;23.00
44933;PMS3003;30667;43.614;1.442;2023-03-01T07:48:44;45.00;39.50;24.75
44933;PMS3003;30667;43.614;1.442;2023-03-01T07:51:10;39.25;35.75;22.75
44933;PMS3003;30667;43.614;1.442;2023-03-01T07:53:35;41.75;36.75;24.00
44933;PMS3003;30667;43.614;1.442;2023-03-01T07:56:05;43.50;40.00;23.75
44933;PMS3003;30667;43.614;1.442;2023-03-01T07:58:36;36.20;35.40;24.00
44933;PMS3003;30667;43.614;1.442;2023-03-01T08:01:03;43.40;36.20;23.80
44933;PMS3003;30667;43.614;1.442;2023-03-01T08:03:30;40.20;38.80;25.60
44933;PMS3003;30667;43.614;1.442;2023-03-01T08:05:55;38.25;35.50;21.00
44933;PMS3003;30667;43.614;1.442;2023-03-01T08:08:21;37.25;34.00;22.00
44933;PMS3003;30667;43.614;1.442;2023-03-01T08:10:46;41.25;37.50;23.75
44933;PMS3003;30667;43.614;1.442;2023-03-01T08:13:12;43.25;35.50;23.75
44933;PMS3003;30667;43.614;1.442;2023-03-01T08:15:37;41.00;38.00;25.50
44933;PMS3003;30667;43.614;1.442;2023-03-01T08:18:02;35.25;32.75;22.50
44933;PMS3003;30667;43.614;1.442;2023-03-01T08:20:28;33.75;32.25;21.25
44933;PMS3003;30667;43.614;1.442;2023-03-01T08:22:53;40.50;35.25;23.50
44933;PMS3003;30667;43.614;1.442;2023-03-01T08:25:18;37.50;34.50;23.00
44933;PMS3003;30667;43.614;1.442;2023-03-01T08:27:44;43.75;37.50;24.00
44933;PMS3003;30667;43.614;1.442;2023-03-01T08:30:09;46.00;35.75;21.75
44933;PMS3003;30667;43.614;1.442;2023-03-01T08:32:36;46.20;42.00;26.20
44933;PMS3003;30667;43.614;1.442;2023-03-01T08:35:03;40.80;36.60;23.40
44933;PMS3003;30667;43.614;1.442;2023-03-01T08:37:28;49.75;42.50;26.00
44933;PMS3003;30667;43.614;1.442;2023-03-01T08:39:55;43.20;37.00;22.80
44933;PMS3003;30667;43.614;1.442;2023-03-01T08:42:21;44.50;40.00;26.00
44933;PMS3003;30667;43.614;1.442;2023-03-01T08:44:46;45.00;37.75;24.00
44933;PMS3003;30667;43.614;1.442;2023-03-01T08:47:12;37.25;35.50;24.00
44933;PMS3003;30667;43.614;1.442;2023-03-01T08:49:37;43.75;38.75;22.75
44933;PMS3003;30667;43.614;1.442;2023-03-01T08:52:02;39.25;37.75;25.75
44933;PMS3003;30667;43.614;1.442;2023-03-01T08:54:28;41.00;37.75;25.75
44933;PMS3003;30667;43.614;1.442;2023-03-01T08:56:53;39.75;38.25;24.00
44933;PMS3003;30667;43.614;1.442;2023-03-01T08:59:19;38.50;36.25;24.00
44933;PMS3003;30667;43.614;1.442;2023-03-01T09:01:44;43.00;36.00;24.00
44933;PMS3003;30667;43.614;1.442;2023-03-01T09:04:10;38.50;35.00;23.25
44933;PMS3003;30667;43.614;1.442;2023-03-01T09:06:37;49.00;42.00;25.80
44933;PMS3003;30667;43.614;1.442;2023-03-01T09:09:03;41.25;37.00;24.50
44933;PMS3003;30667;43.614;1.442;2023-03-01T09:11:32;45.00;39.40;25.00
44933;PMS3003;30667;43.614;1.442;2023-03-01T09:13:58;41.00;37.50;25.50
44933;PMS3003;30667;43.614;1.442;2023-03-01T09:16:23;43.00;38.00;22.25
44933;PMS3003;30667;43.614;1.442;2023-03-01T09:18:53;43.00;38.25;22.50
44933;PMS3003;30667;43.614;1.442;2023-03-01T09:21:20;37.40;35.80;24.20
44933;PMS3003;30667;43.614;1.442;2023-03-01T09:23:48;38.80;34.60;23.60
44933;PMS3003;30667;43.614;1.442;2023-03-01T09:26:15;38.50;35.50;23.75
44933;PMS3003;30667;43.614;1.442;2023-03-01T09:28:44;35.60;31.20;22.00
44933;PMS3003;30667;43.614;1.442;2023-03-01T09:31:09;31.00;29.50;20.50
44933;PMS3003;30667;43.614;1.442;2023-03-01T09:33:38;34.40;29.40;20.20
44933;PMS3003;30667;43.614;1.442;2023-03-01T09:36:05;32.20;29.40;19.20
44933;PMS3003;30667;43.614;1.442;2023-03-01T09:38:32;32.20;30.80;21.00
44933;PMS3003;30667;43.614;1.442;2023-03-01T09:40:58;32.20;30.00;19.80
44933;PMS3003;30667;43.614;1.442;2023-03-01T09:46:08;31.80;29.40;18.60
44933;PMS3003;30667;43.614;1.442;2023-03-01T09:48:43;29.60;27.80;17.00
44933;PMS3003;30667;43.614;1.442;2023-03-01T09:51:19;31.20;27.60;17.20
44933;PMS3003;30667;43.614;1.442;2023-03-01T09:53:51;34.60;28.00;17.80
44933;PMS3003;30667;43.614;1.442;2023-03-01T09:56:20;31.60;29.60;18.60
44933;PMS3003;30667;43.614;1.442;2023-03-01T09:58:59;28.60;26.60;16.80
44933;PMS3003;30667;43.614;1.442;2023-03-01T10:04:49;29.60;22.40;13.60
44933;PMS3003;30667;43.614;1.442;2023-03-01T10:09:54;26.80;25.80;15.80
44933;PMS3003;30667;43.614;1.442;2023-03-01T10:12:20;29.50;26.75;16.75
44933;PMS3003;30667;43.614;1.442;2023-03-01T10:15:02;27.40;24.00;15.00
44933;PMS3003;30667;43.614;1.442;2023-03-01T10:20:26;24.60;21.20;13.80
44933;PMS3003;30667;43.614;1.442;2023-03-01T10:23:09;27.40;25.80;14.00
44933;PMS3003;30667;43.614;1.442;2023-03-01T10:28:12;26.00;23.00;13.80
44933;PMS3003;30667;43.614;1.442;2023-03-01T10:30:43;23.60;22.60;15.20
44933;PMS3003;30667;43.614;1.442;2023-03-01T10:33:21;25.80;23.40;16.80
44933;PMS3003;30667;43.614;1.442;2023-03-01T10:35:50;28.40;22.00;13.60
44933;PMS3003;30667;43.614;1.442;2023-03-01T10:38:16;24.80;21.00;13.80
44933;PMS3003;30667;43.614;1.442;2023-03-01T10:40:51;24.00;22.00;15.00
44933;PMS3003;30667;43.614;1.442;2023-03-01T10:43:19;29.00;23.40;15.40
44933;PMS3003;30667;43.614;1.442;2023-03-01T10:45:45;28.60;24.00;15.40
44933;PMS3003;30667;43.614;1.442;2023-03-01T10:48:18;31.50;26.25;14.75
44933;PMS3003;30667;43.614;1.442;2023-03-01T10:50:45;26.00;25.00;15.00
44933;PMS3003;30667;43.614;1.442;2023-03-01T10:53:32;23.40;22.60;13.80
44933;PMS3003;30667;43.614;1.442;2023-03-01T10:56:10;27.80;25.00;15.00
44933;PMS3003;30667;43.614;1.442;2023-03-01T10:58:57;29.40;24.80;15.20
44933;PMS3003;30667;43.614;1.442;2023-03-01T11:04:03;26.25;25.50;15.50
44933;PMS3003;30667;43.614;1.442;2023-03-01T11:06:32;27.60;24.80;15.00
44933;PMS3003;30667;43.614;1.442;2023-03-01T11:09:12;26.80;20.40;13.00
44933;PMS3003;30667;43.614;1.442;2023-03-01T11:11:40;20.80;20.20;13.00
44933;PMS3003;30667;43.614;1.442;2023-03-01T11:14:16;27.00;23.80;15.80
44933;PMS3003;30667;43.614;1.442;2023-03-01T11:17:11;25.00;24.40;15.00
44933;PMS3003;30667;43.614;1.442;2023-03-01T11:19:42;26.80;25.00;15.40
44933;PMS3003;30667;43.614;1.442;2023-03-01T11:22:16;27.00;26.00;15.75
44933;PMS3003;30667;43.614;1.442;2023-03-01T11:24:46;26.80;25.40;17.60
44933;PMS3003;30667;43.614;1.442;2023-03-01T11:27:32;29.00;25.00;16.60
44933;PMS3003;30667;43.614;1.442;2023-03-01T11:30:03;23.80;23.20;14.80
44933;PMS3003;30667;43.614;1.442;2023-03-01T11:32:50;27.80;23.60;14.60
44933;PMS3003;30667;43.614;1.442;2023-03-01T11:35:20;32.40;27.20;17.40
44933;PMS3003;30667;43.614;1.442;2023-03-01T11:40:28;27.00;23.40;14.20
44933;PMS3003;30667;43.614;1.442;2023-03-01T11:46:14;23.80;21.60;14.60
44933;PMS3003;30667;43.614;1.442;2023-03-01T11:54:27;29.60;24.00;13.60
44933;PMS3003;30667;43.614;1.442;2023-03-01T11:56:55;21.80;21.20;13.00
44933;PMS3003;30667;43.614;1.442;2023-03-01T12:02:17;21.00;20.40;12.20
44933;PMS3003;30667;43.614;1.442;2023-03-01T12:07:52;19.80;19.20;11.20
44933;PMS3003;30667;43.614;1.442;2023-03-01T12:12:52;24.75;21.50;10.75
44933;PMS3003;30667;43.614;1.442;2023-03-01T12:19:27;17.60;17.00;12.00
44933;PMS3003;30667;43.614;1.442;2023-03-01T12:29:26;20.60;19.00;10.00
44933;PMS3003;30667;43.614;1.442;2023-03-01T12:51:19;20.20;20.20;13.80
44933;PMS3003;30667;43.614;1.442;2023-03-01T12:53:49;22.40;20.60;11.80
44933;PMS3003;30667;43.614;1.442;2023-03-01T12:56:19;25.20;21.60;11.00
44933;PMS3003;30667;43.614;1.442;2023-03-01T12:58:51;22.20;19.40;12.60
44933;PMS3003;30667;43.614;1.442;2023-03-01T13:17:57;17.40;16.00;9.60
44933;PMS3003;30667;43.614;1.442;2023-03-01T13:23:00;22.80;20.00;10.40
44933;PMS3003;30667;43.614;1.442;2023-03-01T13:25:29;18.80;18.80;11.80
44933;PMS3003;30667;43.614;1.442;2023-03-01T13:28:32;19.00;18.75;11.75
44933;PMS3003;30667;43.614;1.442;2023-03-01T13:30:59;18.80;17.00;9.60
44933;PMS3003;30667;43.614;1.442;2023-03-01T13:35:56;24.00;21.80;12.20
44933;PMS3003;30667;43.614;1.442;2023-03-01T13:41:05;21.20;19.20;11.80
44933;PMS3003;30667;43.614;1.442;2023-03-01T13:43:40;18.75;18.00;12.00
44933;PMS3003;30667;43.614;1.442;2023-03-01T13:46:09;24.40;19.80;12.80
44933;PMS3003;30667;43.614;1.442;2023-03-01T13:48:52;21.20;20.00;12.00
44933;PMS3003;30667;43.614;1.442;2023-03-01T13:51:23;23.80;20.80;12.00
44933;PMS3003;30667;43.614;1.442;2023-03-01T13:53:52;20.60;20.60;12.40
44933;PMS3003;30667;43.614;1.442;2023-03-01T13:56:27;19.20;19.20;10.80
44933;PMS3003;30667;43.614;1.442;2023-03-01T13:58:59;19.00;18.40;12.40
44933;PMS3003;30667;43.614;1.442;2023-03-01T14:01:31;20.80;19.00;12.80
44933;PMS3003;30667;43.614;1.442;2023-03-01T14:03:59;24.40;20.00;11.80
44933;PMS3003;30667;43.614;1.442;2023-03-01T14:06:28;22.80;19.40;11.20
44933;PMS3003;30667;43.614;1.442;2023-03-01T14:14:40;27.60;24.60;13.40
44933;PMS3003;30667;43.614;1.442;2023-03-01T14:20:12;26.20;21.20;13.00
44933;PMS3003;30667;43.614;1.442;2023-03-01T14:22:43;23.80;20.60;12.80
44933;PMS3003;30667;43.614;1.442;2023-03-01T14:25:28;20.80;19.40;11.20
44933;PMS3003;30667;43.614;1.442;2023-03-01T14:27:59;24.80;22.80;13.00
44933;PMS3003;30667;43.614;1.442;2023-03-01T14:30:31;24.40;21.20;13.60
44933;PMS3003;30667;43.614;1.442;2023-03-01T14:33:00;20.20;19.80;12.40
44933;PMS3003;30667;43.614;1.442;2023-03-01T14:35:31;27.60;25.20;16.00
44933;PMS3003;30667;43.614;1.442;2023-03-01T14:37:59;21.00;18.20;11.20
44933;PMS3003;30667;43.614;1.442;2023-03-01T14:40:26;19.50;19.25;11.00
44933;PMS3003;30667;43.614;1.442;2023-03-01T14:42:55;23.40;22.20;12.40
44933;PMS3003;30667;43.614;1.442;2023-03-01T14:45:23;20.80;19.20;11.40
44933;PMS3003;30667;43.614;1.442;2023-03-01T14:47:51;21.00;20.00;11.20
44933;PMS3003;30667;43.614;1.442;2023-03-01T14:50:21;21.80;20.00;13.00
44933;PMS3003;30667;43.614;1.442;2023-03-01T14:52:48;20.60;19.60;12.80
44933;PMS3003;30667;43.614;1.442;2023-03-01T14:55:20;23.80;20.20;12.80
44933;PMS3003;30667;43.614;1.442;2023-03-01T14:57:50;23.40;20.60;13.00
44933;PMS3003;30667;43.614;1.442;2023-03-01T15:00:21;21.20;20.20;11.80
44933;PMS3003;30667;43.614;1.442;2023-03-01T15:02:49;20.00;20.00;12.60
44933;PMS3003;30667;43.614;1.442;2023-03-01T15:05:18;20.20;17.40;10.00
44933;PMS3003;30667;43.614;1.442;2023-03-01T15:07:58;17.80;17.80;10.00
44933;PMS3003;30667;43.614;1.442;2023-03-01T15:10:30;22.00;20.40;13.00
44933;PMS3003;30667;43.614;1.442;2023-03-01T15:16:21;21.20;18.00;11.20
44933;PMS3003;30667;43.614;1.442;2023-03-01T15:18:55;19.40;19.40;12.80
44933;PMS3003;30667;43.614;1.442;2023-03-01T15:21:27;22.20;21.60;13.60
44933;PMS3003;30667;43.614;1.442;2023-03-01T15:23:58;23.40;21.40;13.00
44933;PMS3003;30667;43.614;1.442;2023-03-01T15:26:26;20.00;18.20;11.60
44933;PMS3003;30667;43.614;1.442;2023-03-01T15:28:55;20.60;18.80;11.00
44933;PMS3003;30667;43.614;1.442;2023-03-01T15:31:25;21.40;19.80;12.20
44933;PMS3003;30667;43.614;1.442;2023-03-01T15:34:10;21.20;20.20;11.00
44933;PMS3003;30667;43.614;1.442;2023-03-01T15:36:51;22.00;19.80;13.00
44933;PMS3003;30667;43.614;1.442;2023-03-01T15:41:55;23.40;21.20;11.00
44933;PMS3003;30667;43.614;1.442;2023-03-01T15:44:28;21.80;20.00;11.00
44933;PMS3003;30667;43.614;1.442;2023-03-01T15:46:55;22.20;21.00;13.00
44933;PMS3003;30667;43.614;1.442;2023-03-01T15:49:33;21.40;20.00;13.80
44933;PMS3003;30667;43.614;1.442;2023-03-01T15:52:00;23.00;19.00;11.00